Bookmark and Share
Track history (hours):
 

Orchid Ace

Last reported at 2014-Mar-26 11:16 UTC. Time now 2014-Apr-23 09:22 UTC.
Position S 36°29' E 175°60'.
Warning: this ship's position is 27 days out of date.

Length 200 m; draft 7.9 m.

Type: Cargo ship. MMSI: 432651000.

NotesDate/timePositionNaut miles runAvg speedWind from/ knotsBaromVisibWave heightAir tempDewpointWater temp
2014-Mar-26 11:16S 36°29' E 175°60'3017.0
2014-Mar-26 09:30S 36°24' E 175°23'1717.6
2014-Mar-26 08:33S 36°32' E 175°06'1717.0
2014-Mar-26 07:33S 36°44' E 174°50'7 1.0
2014-Mar-26 00:33S 36°50' E 174°46'0 0.0
2014-Mar-25 23:33S 36°50' E 174°46'0 0.0
2014-Mar-25 22:33S 36°50' E 174°46'0 0.0
2014-Mar-25 21:33S 36°50' E 174°46'0 0.0
2014-Mar-25 20:27S 36°50' E 174°46'0 0.0
2014-Mar-25 19:33S 36°50' E 174°46'0 0.0
2014-Mar-25 17:33S 36°50' E 174°46'0 0.0
2014-Mar-25 16:33S 36°50' E 174°46'0 0.0
2014-Mar-25 15:33S 36°50' E 174°46'0 0.0
2014-Mar-25 14:33S 36°50' E 174°46'0 0.0
2014-Mar-25 13:33S 36°50' E 174°46'0 0.0
2014-Mar-25 12:33S 36°50' E 174°46'0 0.0
2014-Mar-25 11:33S 36°50' E 174°46'0 0.0
2014-Mar-25 10:33S 36°50' E 174°46'0 0.0
2014-Mar-25 09:27S 36°50' E 174°46'0 0.0
2014-Mar-25 08:33S 36°50' E 174°46'0 0.0
2014-Mar-25 07:33S 36°50' E 174°46'6 6.4
2014-Mar-25 06:33S 36°45' E 174°50'1414.2
2014-Mar-25 05:33S 36°33' E 175°00'1817.9
2014-Mar-25 04:33S 36°15' E 174°58'  
2014-Mar-22 03:18S 26°56' E 153°44'1317.3
2014-Mar-22 02:33S 26°50' E 153°31'1716.7
2014-Mar-22 01:33S 26°43' E 153°14'1010.0
2014-Mar-22 00:33S 26°52' E 153°10'1717.3
2014-Mar-21 23:33S 27°07' E 153°20'1313.4
2014-Mar-21 22:33S 27°19' E 153°13'5 4.6
2014-Mar-21 21:30S 27°23' E 153°10'0 0.0
2014-Mar-21 20:33S 27°23' E 153°10'0 0.0
2014-Mar-21 19:33S 27°23' E 153°10'0 0.0
2014-Mar-21 18:33S 27°23' E 153°10'0 0.0
2014-Mar-21 17:33S 27°23' E 153°10'0 0.0
2014-Mar-21 16:33S 27°23' E 153°10'0 0.0
2014-Mar-21 15:33S 27°23' E 153°10'0 0.0
2014-Mar-21 14:33S 27°23' E 153°10'0 0.0
2014-Mar-21 13:33S 27°23' E 153°10'0 0.0
2014-Mar-21 12:33S 27°23' E 153°10'0 0.0
2014-Mar-21 11:33S 27°23' E 153°10'0 0.0
2014-Mar-21 10:33S 27°23' E 153°10'0 0.0
2014-Mar-21 09:30S 27°23' E 153°10'0 0.0
2014-Mar-21 08:33S 27°23' E 153°10'0 0.0
2014-Mar-21 07:33S 27°23' E 153°10'0 0.0
2014-Mar-21 06:30S 27°23' E 153°10'0 0.0
2014-Mar-21 05:30S 27°23' E 153°10'0 0.0
2014-Mar-21 04:33S 27°23' E 153°10'0 0.0
2014-Mar-21 03:33S 27°23' E 153°10'5 5.1
2014-Mar-21 02:33S 27°18' E 153°13'1414.1
2014-Mar-21 01:34S 27°05' E 153°19'1817.6
2014-Mar-21 00:33S 26°50' E 153°09'11 9.0
2014-Mar-20 23:22S 26°41' E 153°14'1 0.8
2014-Mar-20 22:28S 26°41' E 153°15'0 0.0
2014-Mar-20 21:28S 26°41' E 153°15'0 0.0
2014-Mar-20 20:10S 26°41' E 153°15'0 0.1
2014-Mar-20 19:22S 26°41' E 153°15'0 0.0
2014-Mar-20 18:28S 26°41' E 153°15'0 0.0
2014-Mar-20 17:28S 26°41' E 153°15'0 0.0
2014-Mar-20 16:28S 26°41' E 153°15'0 0.0
2014-Mar-20 15:22S 26°40' E 153°15'0 0.0
2014-Mar-20 13:16S 26°40' E 153°15'0 0.0
2014-Mar-20 12:16S 26°40' E 153°15'0 0.1
2014-Mar-20 11:22S 26°41' E 153°15'0 0.0
2014-Mar-20 10:22S 26°41' E 153°15'0 0.0
2014-Mar-20 09:22S 26°40' E 153°15'0 0.1
2014-Mar-20 08:28S 26°40' E 153°15'0 0.1
2014-Mar-20 07:16S 26°40' E 153°15'0 0.0
2014-Mar-20 06:16S 26°40' E 153°15'0 0.0
2014-Mar-20 02:28S 26°40' E 153°15'0 0.0
2014-Mar-20 01:28S 26°40' E 153°15'0 0.0
2014-Mar-20 00:16S 26°40' E 153°15'0 0.0
2014-Mar-19 23:16S 26°40' E 153°15'0 0.1
2014-Mar-19 22:28S 26°40' E 153°15'0 0.0
2014-Mar-19 21:34S 26°40' E 153°15'0 0.1
2014-Mar-19 20:28S 26°41' E 153°15'0 0.1
2014-Mar-19 19:34S 26°40' E 153°15'0 0.1
2014-Mar-19 18:34S 26°40' E 153°15'0 0.0
2014-Mar-19 17:34S 26°40' E 153°15'0 0.0
2014-Mar-19 16:22S 26°40' E 153°15'0 0.1
2014-Mar-19 15:28S 26°40' E 153°15'0 0.0
2014-Mar-19 14:34S 26°40' E 153°15'0 0.1
2014-Mar-19 13:34S 26°40' E 153°15'0 0.1
2014-Mar-19 12:34S 26°40' E 153°15'0 0.1
2014-Mar-19 11:34S 26°40' E 153°15'0 0.0
2014-Mar-19 10:22S 26°40' E 153°15'0 0.0
2014-Mar-19 09:28S 26°41' E 153°15'0 0.1
2014-Mar-19 08:28S 26°40' E 153°15'0 0.0
2014-Mar-19 07:10S 26°41' E 153°15'1 2.0
2014-Mar-19 06:33S 26°40' E 153°14'8 8.0
2014-Mar-19 05:33S 26°46' E 153°20'2317.3
2014-Mar-19 04:15S 27°03' E 153°37'1317.3
2014-Mar-19 03:31S 27°14' E 153°43'1815.8
2014-Mar-19 02:22S 27°31' E 153°50'1316.6
2014-Mar-19 01:33S 27°44' E 153°49'1717.1
2014-Mar-19 00:33S 28°02' E 153°50'27316.0
2014-Mar-18 07:32S 32°28' E 152°43'1414.6
2014-Mar-18 06:34S 32°41' E 152°35'1716.6
2014-Mar-18 05:34S 32°55' E 152°24'1817.8
2014-Mar-18 04:34S 33°10' E 152°13'1818.1
2014-Mar-18 03:33S 33°25' E 152°01'1616.2
2014-Mar-18 02:34S 33°39' E 151°51'1715.9
2014-Mar-18 01:31S 33°52' E 151°39'1717.5
2014-Mar-18 00:34S 34°06' E 151°28'199 6.3
2014-Mar-16 17:05S 37°16' E 150°16'1017.8
2014-Mar-16 16:33S 37°25' E 150°13'1716.9
2014-Mar-16 15:33S 37°42' E 150°07'  

Dump ship's entire track history

sailing weather and tide predictions

Orchid Ace — 7JDE — position and weather